DRWOF ETNJ-EBLE
Flight info
| Callsign | DRWOF |
|---|---|
| Flight time | N/A |
| Altitude | 5000 |
| Route | ETNJ DCT IPMOG DCT FUPNE DCT TOLD DCT W3S DCT EBLE |
| Aircraft | C172/L-VGD/A |
Departure
| Time | N/A |
|---|---|
| Airport | ETNJ |
Arrival
| Time | 2026-04-28 18:08 |
|---|---|
| Airport | Leopoldsburg Airfield (EBLE) |
| Time | Latitude | Longitude | Altitude | Speed | Heading |
|---|---|---|---|---|---|
| 2026-04-28 16:38 | 53.53224 | 7.88206 | 25 ft | 0 kts | 9° |
| 2026-04-28 16:39 | 53.53228 | 7.88207 | 25 ft | 4 kts | 9° |
| 2026-04-28 16:39 | 53.53253 | 7.88333 | 25 ft | 22 kts | 107° |
| 2026-04-28 16:39 | 53.53219 | 7.88621 | 25 ft | 23 kts | 99° |
| 2026-04-28 16:40 | 53.53189 | 7.88865 | 25 ft | 19 kts | 100° |
| 2026-04-28 16:40 | 53.53163 | 7.89068 | 24 ft | 16 kts | 102° |
| 2026-04-28 16:40 | 53.53142 | 7.89251 | 24 ft | 17 kts | 103° |
| 2026-04-28 16:40 | 53.53114 | 7.89468 | 25 ft | 21 kts | 103° |
| 2026-04-28 16:41 | 53.53083 | 7.89721 | 25 ft | 23 kts | 103° |
| 2026-04-28 16:41 | 53.53051 | 7.89999 | 25 ft | 25 kts | 100° |
| 2026-04-28 16:41 | 53.53015 | 7.90267 | 25 ft | 24 kts | 101° |
| 2026-04-28 16:41 | 53.52986 | 7.90524 | 25 ft | 19 kts | 99° |
| 2026-04-28 16:42 | 53.53036 | 7.90656 | 25 ft | 14 kts | 13° |
| 2026-04-28 16:42 | 53.53070 | 7.90669 | 25 ft | 0 kts | 17° |
| 2026-04-28 16:42 | 53.53072 | 7.90670 | 25 ft | 0 kts | 15° |
| 2026-04-28 16:43 | 53.53133 | 7.90641 | 24 ft | 18 kts | 303° |
| 2026-04-28 16:43 | 53.53157 | 7.90504 | 26 ft | 21 kts | 283° |
| 2026-04-28 16:43 | 53.53221 | 7.90002 | 27 ft | 65 kts | 282° |
| 2026-04-28 16:43 | 53.53309 | 7.89173 | 168 ft | 74 kts | 280° |
| 2026-04-28 16:44 | 53.53151 | 7.88453 | 363 ft | 76 kts | 199° |
| 2026-04-28 16:44 | 53.52699 | 7.87995 | 548 ft | 79 kts | 216° |
| 2026-04-28 16:44 | 53.52223 | 7.87469 | 701 ft | 84 kts | 204° |
| 2026-04-28 16:44 | 53.51740 | 7.86928 | 853 ft | 89 kts | 214° |
| 2026-04-28 16:45 | 53.51162 | 7.86277 | 858 ft | 109 kts | 214° |
| 2026-04-28 16:45 | 53.50503 | 7.85514 | 846 ft | 121 kts | 213° |
| 2026-04-28 16:45 | 53.49793 | 7.84695 | 835 ft | 126 kts | 214° |
| 2026-04-28 16:45 | 53.49076 | 7.83859 | 888 ft | 126 kts | 215° |
| 2026-04-28 16:46 | 53.48379 | 7.82959 | 929 ft | 126 kts | 220° |
| 2026-04-28 16:46 | 53.47672 | 7.82082 | 960 ft | 126 kts | 219° |
| 2026-04-28 16:46 | 53.46963 | 7.81228 | 962 ft | 125 kts | 218° |
| 2026-04-28 16:46 | 53.46254 | 7.80387 | 967 ft | 124 kts | 217° |
| 2026-04-28 16:47 | 53.45551 | 7.79556 | 982 ft | 124 kts | 217° |
| 2026-04-28 16:47 | 53.44854 | 7.78735 | 1034 ft | 120 kts | 217° |
| 2026-04-28 16:47 | 53.44171 | 7.77929 | 1059 ft | 121 kts | 217° |
| 2026-04-28 16:47 | 53.43489 | 7.77127 | 1060 ft | 121 kts | 218° |
| 2026-04-28 16:48 | 53.42804 | 7.76322 | 1097 ft | 120 kts | 217° |
| 2026-04-28 16:48 | 53.42113 | 7.75508 | 1121 ft | 121 kts | 217° |
| 2026-04-28 16:48 | 53.41437 | 7.74708 | 1195 ft | 120 kts | 217° |
| 2026-04-28 16:48 | 53.40751 | 7.73906 | 1255 ft | 120 kts | 216° |
| 2026-04-28 16:49 | 53.40068 | 7.73096 | 1297 ft | 120 kts | 217° |
| 2026-04-28 16:49 | 53.39385 | 7.72290 | 1348 ft | 120 kts | 216° |
| 2026-04-28 16:49 | 53.38697 | 7.71488 | 1402 ft | 121 kts | 217° |
| 2026-04-28 16:49 | 53.38020 | 7.70699 | 1496 ft | 116 kts | 218° |
| 2026-04-28 16:50 | 53.37356 | 7.69919 | 1576 ft | 117 kts | 217° |
| 2026-04-28 16:50 | 53.36688 | 7.69139 | 1662 ft | 117 kts | 217° |
| 2026-04-28 16:50 | 53.36022 | 7.68354 | 1740 ft | 116 kts | 217° |
| 2026-04-28 16:50 | 53.35356 | 7.67576 | 1802 ft | 117 kts | 217° |
| 2026-04-28 16:51 | 53.34689 | 7.66798 | 1874 ft | 117 kts | 218° |
| 2026-04-28 16:51 | 53.34020 | 7.66009 | 1944 ft | 118 kts | 219° |
| 2026-04-28 16:51 | 53.33348 | 7.65224 | 2002 ft | 119 kts | 216° |
| 2026-04-28 16:51 | 53.32670 | 7.64449 | 2137 ft | 117 kts | 218° |
| 2026-04-28 16:52 | 53.32004 | 7.63654 | 2215 ft | 118 kts | 217° |
| 2026-04-28 16:52 | 53.31329 | 7.62864 | 2270 ft | 118 kts | 217° |
| 2026-04-28 16:52 | 53.30654 | 7.62075 | 2323 ft | 118 kts | 218° |
| 2026-04-28 16:52 | 53.29978 | 7.61285 | 2378 ft | 118 kts | 217° |
| 2026-04-28 16:53 | 53.29308 | 7.60500 | 2447 ft | 118 kts | 217° |
| 2026-04-28 16:53 | 53.28634 | 7.59716 | 2493 ft | 118 kts | 218° |
| 2026-04-28 16:53 | 53.27967 | 7.58916 | 2537 ft | 118 kts | 218° |
| 2026-04-28 16:53 | 53.27303 | 7.58104 | 2617 ft | 118 kts | 218° |
| 2026-04-28 16:54 | 53.26653 | 7.57272 | 2673 ft | 118 kts | 219° |
| 2026-04-28 16:54 | 53.26009 | 7.56421 | 2717 ft | 118 kts | 220° |
| 2026-04-28 16:54 | 53.25373 | 7.55553 | 2750 ft | 118 kts | 221° |
| 2026-04-28 16:54 | 53.24743 | 7.54676 | 2795 ft | 118 kts | 222° |
| 2026-04-28 16:55 | 53.24118 | 7.53778 | 2863 ft | 119 kts | 222° |
| 2026-04-28 16:55 | 53.23505 | 7.52870 | 3029 ft | 118 kts | 224° |
| 2026-04-28 16:55 | 53.22905 | 7.51951 | 3176 ft | 118 kts | 225° |
| 2026-04-28 16:55 | 53.22303 | 7.51004 | 3310 ft | 119 kts | 226° |
| 2026-04-28 16:56 | 53.21711 | 7.50043 | 3404 ft | 119 kts | 226° |
| 2026-04-28 16:56 | 53.21125 | 7.49074 | 3555 ft | 120 kts | 228° |
| 2026-04-28 16:56 | 53.20547 | 7.48073 | 3730 ft | 119 kts | 229° |
| 2026-04-28 16:56 | 53.19982 | 7.47055 | 3810 ft | 120 kts | 230° |
| 2026-04-28 16:57 | 53.19415 | 7.46006 | 3873 ft | 120 kts | 230° |
| 2026-04-28 16:57 | 53.18874 | 7.44977 | 3988 ft | 120 kts | 232° |
| 2026-04-28 16:57 | 53.18333 | 7.43911 | 4141 ft | 120 kts | 233° |
| 2026-04-28 16:57 | 53.17781 | 7.42867 | 4247 ft | 120 kts | 231° |
| 2026-04-28 16:58 | 53.17224 | 7.41817 | 4356 ft | 120 kts | 231° |
| 2026-04-28 16:58 | 53.16673 | 7.40769 | 4450 ft | 120 kts | 229° |
| 2026-04-28 16:58 | 53.16066 | 7.39788 | 4496 ft | 121 kts | 227° |
| 2026-04-28 16:58 | 53.15408 | 7.38920 | 4592 ft | 122 kts | 210° |
| 2026-04-28 16:59 | 53.14667 | 7.38228 | 4648 ft | 122 kts | 211° |
| 2026-04-28 16:59 | 53.13933 | 7.37523 | 4749 ft | 121 kts | 212° |
| 2026-04-28 16:59 | 53.13200 | 7.36824 | 4831 ft | 121 kts | 212° |
| 2026-04-28 16:59 | 53.12445 | 7.36098 | 4835 ft | 127 kts | 212° |
| 2026-04-28 17:00 | 53.11672 | 7.35366 | 4830 ft | 128 kts | 212° |
| 2026-04-28 17:00 | 53.10897 | 7.34628 | 4833 ft | 128 kts | 211° |
| 2026-04-28 17:00 | 53.10135 | 7.33902 | 4833 ft | 128 kts | 211° |
| 2026-04-28 17:00 | 53.09338 | 7.33151 | 4842 ft | 136 kts | 211° |
| 2026-04-28 17:01 | 53.08518 | 7.32368 | 4840 ft | 137 kts | 211° |
| 2026-04-28 17:01 | 53.07691 | 7.31580 | 4827 ft | 135 kts | 211° |
| 2026-04-28 17:01 | 53.06873 | 7.30822 | 4828 ft | 133 kts | 212° |
| 2026-04-28 17:01 | 53.06075 | 7.30072 | 4831 ft | 131 kts | 211° |
| 2026-04-28 17:02 | 53.05285 | 7.29357 | 4831 ft | 128 kts | 211° |
| 2026-04-28 17:02 | 53.04759 | 7.28866 | 4835 ft | 129 kts | 211° |
| 2026-04-28 17:02 | 53.03677 | 7.27970 | 4825 ft | 133 kts | 191° |
| 2026-04-28 17:02 | 53.02750 | 7.28045 | 4862 ft | 135 kts | 182° |
| 2026-04-28 17:03 | 53.01058 | 7.26833 | 4848 ft | 137 kts | 216° |
| 2026-04-28 17:03 | 53.00259 | 7.25987 | 4830 ft | 133 kts | 213° |
| 2026-04-28 17:03 | 52.99474 | 7.25181 | 4821 ft | 132 kts | 213° |
| 2026-04-28 17:04 | 52.97909 | 7.23585 | 4833 ft | 131 kts | 213° |
| 2026-04-28 17:04 | 52.97136 | 7.22788 | 4841 ft | 130 kts | 214° |
| 2026-04-28 17:05 | 52.95602 | 7.21225 | 4838 ft | 135 kts | 214° |
| 2026-04-28 17:05 | 52.94790 | 7.20391 | 4831 ft | 135 kts | 213° |
| 2026-04-28 17:05 | 52.94021 | 7.19605 | 4820 ft | 129 kts | 213° |
| 2026-04-28 17:06 | 52.92502 | 7.18067 | 4826 ft | 131 kts | 213° |
| 2026-04-28 17:06 | 52.91721 | 7.17296 | 4844 ft | 130 kts | 213° |
| 2026-04-28 17:06 | 52.90194 | 7.15755 | 4834 ft | 127 kts | 213° |
| 2026-04-28 17:07 | 52.89444 | 7.15004 | 4835 ft | 126 kts | 213° |
| 2026-04-28 17:07 | 52.88697 | 7.14238 | 4835 ft | 126 kts | 213° |
| 2026-04-28 17:07 | 52.87950 | 7.13479 | 4828 ft | 126 kts | 214° |
| 2026-04-28 17:07 | 52.87206 | 7.12727 | 4832 ft | 125 kts | 213° |
| 2026-04-28 17:08 | 52.86457 | 7.11975 | 4844 ft | 128 kts | 213° |
| 2026-04-28 17:08 | 52.85700 | 7.11190 | 4832 ft | 127 kts | 213° |
| 2026-04-28 17:08 | 52.84947 | 7.10422 | 4840 ft | 128 kts | 214° |
| 2026-04-28 17:08 | 52.84188 | 7.09641 | 4835 ft | 129 kts | 213° |
| 2026-04-28 17:09 | 52.83424 | 7.08857 | 4785 ft | 130 kts | 213° |
| 2026-04-28 17:09 | 52.82634 | 7.08054 | 4681 ft | 136 kts | 213° |
| 2026-04-28 17:09 | 52.81852 | 7.07253 | 4675 ft | 132 kts | 213° |
| 2026-04-28 17:09 | 52.81084 | 7.06472 | 4672 ft | 128 kts | 213° |
| 2026-04-28 17:10 | 52.80315 | 7.05695 | 4669 ft | 127 kts | 213° |
| 2026-04-28 17:10 | 52.79570 | 7.04945 | 4667 ft | 127 kts | 214° |
| 2026-04-28 17:10 | 52.78817 | 7.04187 | 4666 ft | 126 kts | 213° |
| 2026-04-28 17:10 | 52.78071 | 7.03429 | 4671 ft | 126 kts | 213° |
| 2026-04-28 17:11 | 52.77313 | 7.02666 | 4668 ft | 128 kts | 213° |
| 2026-04-28 17:11 | 52.76559 | 7.01908 | 4665 ft | 127 kts | 213° |
| 2026-04-28 17:11 | 52.75806 | 7.01152 | 4667 ft | 126 kts | 213° |
| 2026-04-28 17:11 | 52.75059 | 7.00391 | 4672 ft | 127 kts | 214° |
| 2026-04-28 17:12 | 52.74299 | 6.99629 | 4667 ft | 128 kts | 213° |
| 2026-04-28 17:12 | 52.73545 | 6.98872 | 4665 ft | 126 kts | 214° |
| 2026-04-28 17:12 | 52.72799 | 6.98118 | 4664 ft | 126 kts | 213° |
| 2026-04-28 17:12 | 52.72058 | 6.97356 | 4664 ft | 125 kts | 213° |
| 2026-04-28 17:13 | 52.71320 | 6.96601 | 4662 ft | 125 kts | 213° |
| 2026-04-28 17:13 | 52.70581 | 6.95845 | 4663 ft | 125 kts | 213° |
| 2026-04-28 17:13 | 52.69839 | 6.95089 | 4665 ft | 126 kts | 213° |
| 2026-04-28 17:13 | 52.69092 | 6.94326 | 4663 ft | 126 kts | 214° |
| 2026-04-28 17:14 | 52.68343 | 6.93575 | 4663 ft | 126 kts | 213° |
| 2026-04-28 17:14 | 52.67597 | 6.92826 | 4662 ft | 125 kts | 213° |
| 2026-04-28 17:14 | 52.66864 | 6.92084 | 4664 ft | 125 kts | 213° |
| 2026-04-28 17:14 | 52.66124 | 6.91340 | 4663 ft | 125 kts | 213° |
| 2026-04-28 17:15 | 52.65379 | 6.90600 | 4663 ft | 125 kts | 213° |
| 2026-04-28 17:15 | 52.64635 | 6.89857 | 4662 ft | 125 kts | 213° |
| 2026-04-28 17:15 | 52.63885 | 6.89118 | 4662 ft | 129 kts | 213° |
| 2026-04-28 17:15 | 52.63120 | 6.88357 | 4666 ft | 127 kts | 214° |
| 2026-04-28 17:16 | 52.62359 | 6.87609 | 4666 ft | 127 kts | 213° |
| 2026-04-28 17:16 | 52.61607 | 6.86843 | 4675 ft | 130 kts | 213° |
| 2026-04-28 17:16 | 52.60844 | 6.86066 | 4666 ft | 128 kts | 214° |
| 2026-04-28 17:16 | 52.60089 | 6.85312 | 4665 ft | 126 kts | 213° |
| 2026-04-28 17:17 | 52.59342 | 6.84550 | 4667 ft | 126 kts | 214° |
| 2026-04-28 17:17 | 52.58596 | 6.83804 | 4663 ft | 125 kts | 213° |
| 2026-04-28 17:17 | 52.57852 | 6.83049 | 4663 ft | 125 kts | 213° |
| 2026-04-28 17:17 | 52.57102 | 6.82290 | 4666 ft | 127 kts | 214° |
| 2026-04-28 17:18 | 52.56355 | 6.81532 | 4678 ft | 126 kts | 213° |
| 2026-04-28 17:18 | 52.55598 | 6.80766 | 4676 ft | 128 kts | 212° |
| 2026-04-28 17:18 | 52.54842 | 6.80004 | 4664 ft | 127 kts | 213° |
| 2026-04-28 17:18 | 52.54090 | 6.79252 | 4670 ft | 129 kts | 213° |
| 2026-04-28 17:19 | 52.53335 | 6.78491 | 4669 ft | 126 kts | 214° |
| 2026-04-28 17:19 | 52.52588 | 6.77745 | 4669 ft | 125 kts | 214° |
| 2026-04-28 17:19 | 52.51840 | 6.77006 | 4667 ft | 125 kts | 213° |
| 2026-04-28 17:19 | 52.51095 | 6.76272 | 4683 ft | 126 kts | 212° |
| 2026-04-28 17:20 | 52.50341 | 6.75534 | 4675 ft | 126 kts | 213° |
| 2026-04-28 17:20 | 52.49834 | 6.75030 | 4689 ft | 128 kts | 213° |
| 2026-04-28 17:20 | 52.48791 | 6.73988 | 4663 ft | 133 kts | 213° |
| 2026-04-28 17:20 | 52.48018 | 6.73211 | 4669 ft | 130 kts | 213° |
| 2026-04-28 17:21 | 52.47248 | 6.72432 | 4655 ft | 132 kts | 214° |
| 2026-04-28 17:21 | 52.46476 | 6.71663 | 4666 ft | 130 kts | 214° |
| 2026-04-28 17:21 | 52.45708 | 6.70891 | 4671 ft | 129 kts | 213° |
| 2026-04-28 17:22 | 52.44185 | 6.69350 | 4666 ft | 127 kts | 213° |
| 2026-04-28 17:22 | 52.43432 | 6.68588 | 4661 ft | 127 kts | 213° |
| 2026-04-28 17:22 | 52.42684 | 6.67828 | 4664 ft | 126 kts | 213° |
| 2026-04-28 17:23 | 52.41201 | 6.66334 | 4663 ft | 127 kts | 213° |
| 2026-04-28 17:23 | 52.40439 | 6.65579 | 4668 ft | 126 kts | 213° |
| 2026-04-28 17:23 | 52.39675 | 6.64813 | 4676 ft | 130 kts | 214° |
| 2026-04-28 17:23 | 52.38916 | 6.64061 | 4663 ft | 127 kts | 213° |
| 2026-04-28 17:24 | 52.38164 | 6.63310 | 4661 ft | 126 kts | 213° |
| 2026-04-28 17:24 | 52.37409 | 6.62566 | 4662 ft | 125 kts | 213° |
| 2026-04-28 17:24 | 52.36676 | 6.61839 | 4676 ft | 126 kts | 214° |
| 2026-04-28 17:24 | 52.35913 | 6.61077 | 4678 ft | 130 kts | 213° |
| 2026-04-28 17:25 | 52.35140 | 6.60314 | 4676 ft | 128 kts | 213° |
| 2026-04-28 17:25 | 52.33614 | 6.58788 | 4681 ft | 130 kts | 213° |
| 2026-04-28 17:25 | 52.32839 | 6.58017 | 4668 ft | 129 kts | 214° |
| 2026-04-28 17:26 | 52.32090 | 6.57263 | 4666 ft | 125 kts | 213° |
| 2026-04-28 17:26 | 52.31343 | 6.56513 | 4665 ft | 126 kts | 213° |
| 2026-04-28 17:26 | 52.30608 | 6.55767 | 4665 ft | 126 kts | 213° |
| 2026-04-28 17:26 | 52.29863 | 6.55014 | 4670 ft | 126 kts | 213° |
| 2026-04-28 17:27 | 52.29119 | 6.54268 | 4664 ft | 125 kts | 213° |
| 2026-04-28 17:27 | 52.28375 | 6.53525 | 4667 ft | 126 kts | 213° |
| 2026-04-28 17:27 | 52.27627 | 6.52780 | 4664 ft | 126 kts | 213° |
| 2026-04-28 17:27 | 52.26882 | 6.52040 | 4665 ft | 125 kts | 213° |
| 2026-04-28 17:28 | 52.26133 | 6.51289 | 4675 ft | 127 kts | 213° |
| 2026-04-28 17:28 | 52.24610 | 6.49788 | 4669 ft | 128 kts | 214° |
| 2026-04-28 17:28 | 52.24098 | 6.49281 | 4683 ft | 133 kts | 213° |
| 2026-04-28 17:29 | 52.23304 | 6.48503 | 4663 ft | 131 kts | 213° |
| 2026-04-28 17:29 | 52.22521 | 6.47737 | 4665 ft | 130 kts | 213° |
| 2026-04-28 17:29 | 52.21747 | 6.46971 | 4668 ft | 130 kts | 213° |
| 2026-04-28 17:30 | 52.20201 | 6.45433 | 4662 ft | 129 kts | 213° |
| 2026-04-28 17:30 | 52.18666 | 6.43903 | 4662 ft | 131 kts | 213° |
| 2026-04-28 17:30 | 52.17897 | 6.43135 | 4661 ft | 129 kts | 213° |
| 2026-04-28 17:31 | 52.17131 | 6.42379 | 4665 ft | 128 kts | 213° |
| 2026-04-28 17:31 | 52.15606 | 6.40857 | 4665 ft | 129 kts | 213° |
| 2026-04-28 17:32 | 52.14074 | 6.39341 | 4664 ft | 129 kts | 213° |
| 2026-04-28 17:32 | 52.13315 | 6.38582 | 4675 ft | 129 kts | 214° |
| 2026-04-28 17:32 | 52.12539 | 6.37818 | 4669 ft | 130 kts | 213° |
| 2026-04-28 17:32 | 52.11764 | 6.37064 | 4671 ft | 130 kts | 213° |
| 2026-04-28 17:33 | 52.10994 | 6.36318 | 4666 ft | 130 kts | 213° |
| 2026-04-28 17:33 | 52.10217 | 6.35560 | 4664 ft | 130 kts | 213° |
| 2026-04-28 17:33 | 52.09450 | 6.34809 | 4664 ft | 128 kts | 213° |
| 2026-04-28 17:33 | 52.08937 | 6.34305 | 4664 ft | 127 kts | 213° |
| 2026-04-28 17:34 | 52.07932 | 6.33306 | 4664 ft | 128 kts | 213° |
| 2026-04-28 17:34 | 52.07170 | 6.32552 | 4663 ft | 128 kts | 213° |
| 2026-04-28 17:34 | 52.06414 | 6.31805 | 4664 ft | 127 kts | 213° |
| 2026-04-28 17:34 | 52.05665 | 6.31058 | 4670 ft | 127 kts | 213° |
| 2026-04-28 17:35 | 52.04911 | 6.30307 | 4667 ft | 127 kts | 213° |
| 2026-04-28 17:35 | 52.04157 | 6.29555 | 4662 ft | 127 kts | 213° |
| 2026-04-28 17:35 | 52.03410 | 6.28805 | 4662 ft | 126 kts | 213° |
| 2026-04-28 17:35 | 52.02663 | 6.28066 | 4674 ft | 126 kts | 214° |
| 2026-04-28 17:36 | 52.01905 | 6.27314 | 4663 ft | 126 kts | 213° |
| 2026-04-28 17:36 | 52.01137 | 6.26571 | 4674 ft | 132 kts | 211° |
| 2026-04-28 17:36 | 52.00360 | 6.25793 | 4668 ft | 131 kts | 214° |
| 2026-04-28 17:36 | 51.99590 | 6.25036 | 4663 ft | 127 kts | 212° |
| 2026-04-28 17:37 | 51.98837 | 6.24291 | 4670 ft | 126 kts | 213° |
| 2026-04-28 17:37 | 51.98080 | 6.23560 | 4670 ft | 126 kts | 213° |
| 2026-04-28 17:37 | 51.97330 | 6.22822 | 4668 ft | 126 kts | 213° |
| 2026-04-28 17:37 | 51.96590 | 6.22101 | 4667 ft | 125 kts | 212° |
| 2026-04-28 17:38 | 51.95846 | 6.21374 | 4665 ft | 124 kts | 213° |
| 2026-04-28 17:38 | 51.95099 | 6.20641 | 4669 ft | 128 kts | 213° |
| 2026-04-28 17:38 | 51.94346 | 6.19898 | 4665 ft | 125 kts | 213° |
| 2026-04-28 17:38 | 51.93582 | 6.19151 | 4665 ft | 132 kts | 212° |
| 2026-04-28 17:39 | 51.92813 | 6.18391 | 4663 ft | 127 kts | 213° |
| 2026-04-28 17:39 | 51.92064 | 6.17646 | 4664 ft | 127 kts | 213° |
| 2026-04-28 17:39 | 51.90565 | 6.16155 | 4660 ft | 125 kts | 213° |
| 2026-04-28 17:40 | 51.89820 | 6.15418 | 4674 ft | 128 kts | 213° |
| 2026-04-28 17:40 | 51.89065 | 6.14669 | 4662 ft | 126 kts | 214° |
| 2026-04-28 17:40 | 51.88315 | 6.13935 | 4676 ft | 129 kts | 213° |
| 2026-04-28 17:40 | 51.87546 | 6.13180 | 4675 ft | 129 kts | 213° |
| 2026-04-28 17:41 | 51.86772 | 6.12409 | 4679 ft | 134 kts | 214° |
| 2026-04-28 17:41 | 51.85971 | 6.11628 | 4667 ft | 132 kts | 213° |
| 2026-04-28 17:41 | 51.85197 | 6.10868 | 4657 ft | 130 kts | 213° |
| 2026-04-28 17:41 | 51.84431 | 6.10124 | 4686 ft | 129 kts | 213° |
| 2026-04-28 17:42 | 51.83647 | 6.09373 | 4679 ft | 132 kts | 212° |
| 2026-04-28 17:42 | 51.83114 | 6.08859 | 4667 ft | 129 kts | 213° |
| 2026-04-28 17:42 | 51.82108 | 6.07870 | 4659 ft | 127 kts | 213° |
| 2026-04-28 17:42 | 51.81355 | 6.07130 | 4667 ft | 129 kts | 214° |
| 2026-04-28 17:43 | 51.80569 | 6.06370 | 4672 ft | 134 kts | 212° |
| 2026-04-28 17:43 | 51.79778 | 6.05589 | 4663 ft | 132 kts | 213° |
| 2026-04-28 17:43 | 51.79010 | 6.04831 | 4663 ft | 127 kts | 213° |
| 2026-04-28 17:43 | 51.78265 | 6.04096 | 4664 ft | 125 kts | 213° |
| 2026-04-28 17:44 | 51.77512 | 6.03363 | 4673 ft | 128 kts | 213° |
| 2026-04-28 17:44 | 51.76751 | 6.02617 | 4664 ft | 130 kts | 213° |
| 2026-04-28 17:44 | 51.75986 | 6.01864 | 4664 ft | 127 kts | 213° |
| 2026-04-28 17:44 | 51.75238 | 6.01140 | 4663 ft | 126 kts | 213° |
| 2026-04-28 17:45 | 51.74477 | 6.00396 | 4662 ft | 126 kts | 213° |
| 2026-04-28 17:45 | 51.73737 | 5.99685 | 4663 ft | 125 kts | 212° |
| 2026-04-28 17:45 | 51.72980 | 5.98965 | 4684 ft | 129 kts | 214° |
| 2026-04-28 17:45 | 51.72226 | 5.98158 | 4687 ft | 131 kts | 216° |
| 2026-04-28 17:46 | 51.71464 | 5.97334 | 4665 ft | 130 kts | 216° |
| 2026-04-28 17:46 | 51.70719 | 5.96535 | 4664 ft | 128 kts | 216° |
| 2026-04-28 17:46 | 51.69984 | 5.95740 | 4667 ft | 127 kts | 216° |
| 2026-04-28 17:46 | 51.69256 | 5.94947 | 4663 ft | 126 kts | 216° |
| 2026-04-28 17:47 | 51.68535 | 5.94155 | 4662 ft | 125 kts | 217° |
| 2026-04-28 17:47 | 51.67804 | 5.93369 | 4660 ft | 127 kts | 216° |
| 2026-04-28 17:47 | 51.67076 | 5.92566 | 4665 ft | 127 kts | 216° |
| 2026-04-28 17:47 | 51.66591 | 5.92034 | 4663 ft | 128 kts | 216° |
| 2026-04-28 17:48 | 51.65609 | 5.90961 | 4667 ft | 127 kts | 216° |
| 2026-04-28 17:48 | 51.64881 | 5.90148 | 4663 ft | 128 kts | 216° |
| 2026-04-28 17:48 | 51.64151 | 5.89342 | 4670 ft | 127 kts | 217° |
| 2026-04-28 17:48 | 51.63417 | 5.88540 | 4661 ft | 127 kts | 217° |
| 2026-04-28 17:49 | 51.62689 | 5.87745 | 4664 ft | 128 kts | 216° |
| 2026-04-28 17:49 | 51.61961 | 5.86949 | 4664 ft | 126 kts | 216° |
| 2026-04-28 17:49 | 51.61197 | 5.86223 | 4662 ft | 129 kts | 209° |
| 2026-04-28 17:49 | 51.60410 | 5.85555 | 4662 ft | 128 kts | 210° |
| 2026-04-28 17:50 | 51.59634 | 5.84872 | 4661 ft | 126 kts | 211° |
| 2026-04-28 17:50 | 51.58870 | 5.84192 | 4661 ft | 125 kts | 211° |
| 2026-04-28 17:50 | 51.58106 | 5.83510 | 4667 ft | 127 kts | 211° |
| 2026-04-28 17:50 | 51.57323 | 5.82813 | 4663 ft | 128 kts | 211° |
| 2026-04-28 17:51 | 51.56547 | 5.82116 | 4664 ft | 127 kts | 210° |
| 2026-04-28 17:51 | 51.55784 | 5.81437 | 4663 ft | 126 kts | 211° |
| 2026-04-28 17:51 | 51.55018 | 5.80754 | 4662 ft | 126 kts | 211° |
| 2026-04-28 17:51 | 51.54243 | 5.80062 | 4661 ft | 126 kts | 211° |
| 2026-04-28 17:52 | 51.53491 | 5.79390 | 4661 ft | 125 kts | 210° |
| 2026-04-28 17:52 | 51.52729 | 5.78710 | 4661 ft | 125 kts | 210° |
| 2026-04-28 17:52 | 51.51210 | 5.77358 | 4662 ft | 125 kts | 211° |
| 2026-04-28 17:53 | 51.50453 | 5.76683 | 4671 ft | 125 kts | 211° |
| 2026-04-28 17:53 | 51.49682 | 5.75995 | 4665 ft | 129 kts | 211° |
| 2026-04-28 17:53 | 51.48899 | 5.75301 | 4672 ft | 128 kts | 211° |
| 2026-04-28 17:53 | 51.48120 | 5.74606 | 4664 ft | 128 kts | 210° |
| 2026-04-28 17:54 | 51.47342 | 5.73912 | 4665 ft | 127 kts | 211° |
| 2026-04-28 17:54 | 51.46569 | 5.73225 | 4665 ft | 127 kts | 211° |
| 2026-04-28 17:54 | 51.45795 | 5.72537 | 4663 ft | 127 kts | 211° |
| 2026-04-28 17:54 | 51.45014 | 5.71842 | 4665 ft | 129 kts | 211° |
| 2026-04-28 17:55 | 51.44220 | 5.71163 | 4672 ft | 131 kts | 211° |
| 2026-04-28 17:55 | 51.43443 | 5.70437 | 4664 ft | 128 kts | 211° |
| 2026-04-28 17:55 | 51.42667 | 5.69756 | 4663 ft | 127 kts | 210° |
| 2026-04-28 17:55 | 51.41895 | 5.69078 | 4661 ft | 127 kts | 210° |
| 2026-04-28 17:56 | 51.41130 | 5.68397 | 4661 ft | 126 kts | 211° |
| 2026-04-28 17:56 | 51.40355 | 5.67714 | 4662 ft | 127 kts | 211° |
| 2026-04-28 17:56 | 51.39584 | 5.67023 | 4663 ft | 128 kts | 210° |
| 2026-04-28 17:56 | 51.38810 | 5.66341 | 4662 ft | 126 kts | 211° |
| 2026-04-28 17:57 | 51.38041 | 5.65662 | 4661 ft | 127 kts | 211° |
| 2026-04-28 17:57 | 51.37272 | 5.64981 | 4661 ft | 126 kts | 210° |
| 2026-04-28 17:57 | 51.36508 | 5.64305 | 4664 ft | 125 kts | 210° |
| 2026-04-28 17:57 | 51.35743 | 5.63631 | 4666 ft | 126 kts | 211° |
| 2026-04-28 17:58 | 51.34979 | 5.62952 | 4664 ft | 126 kts | 211° |
| 2026-04-28 17:58 | 51.34207 | 5.62272 | 4669 ft | 127 kts | 211° |
| 2026-04-28 17:58 | 51.33438 | 5.61590 | 4675 ft | 127 kts | 211° |
| 2026-04-28 17:58 | 51.32662 | 5.60906 | 4667 ft | 127 kts | 211° |
| 2026-04-28 17:59 | 51.31885 | 5.60220 | 4667 ft | 127 kts | 211° |
| 2026-04-28 17:59 | 51.31117 | 5.59542 | 4668 ft | 126 kts | 211° |
| 2026-04-28 17:59 | 51.30344 | 5.58860 | 4669 ft | 128 kts | 211° |
| 2026-04-28 17:59 | 51.29570 | 5.58178 | 4673 ft | 127 kts | 211° |
| 2026-04-28 18:00 | 51.28794 | 5.57497 | 4665 ft | 129 kts | 211° |
| 2026-04-28 18:00 | 51.28019 | 5.56812 | 4667 ft | 127 kts | 210° |
| 2026-04-28 18:00 | 51.27244 | 5.56132 | 4666 ft | 127 kts | 211° |
| 2026-04-28 18:00 | 51.26471 | 5.55447 | 4675 ft | 129 kts | 211° |
| 2026-04-28 18:01 | 51.25682 | 5.54754 | 4667 ft | 129 kts | 211° |
| 2026-04-28 18:01 | 51.24901 | 5.54067 | 4674 ft | 129 kts | 211° |
| 2026-04-28 18:01 | 51.24118 | 5.53378 | 4673 ft | 128 kts | 210° |
| 2026-04-28 18:01 | 51.23340 | 5.52697 | 4673 ft | 127 kts | 211° |
| 2026-04-28 18:02 | 51.22564 | 5.52014 | 4665 ft | 127 kts | 210° |
| 2026-04-28 18:02 | 51.21795 | 5.51339 | 4664 ft | 126 kts | 210° |
| 2026-04-28 18:02 | 51.21029 | 5.50666 | 4675 ft | 127 kts | 210° |
| 2026-04-28 18:02 | 51.20261 | 5.49994 | 4743 ft | 122 kts | 210° |
| 2026-04-28 18:03 | 51.19530 | 5.49352 | 4837 ft | 119 kts | 211° |
| 2026-04-28 18:03 | 51.18786 | 5.48705 | 4835 ft | 124 kts | 210° |
| 2026-04-28 18:03 | 51.18039 | 5.48046 | 4823 ft | 116 kts | 212° |
| 2026-04-28 18:03 | 51.17365 | 5.47454 | 4622 ft | 114 kts | 211° |
| 2026-04-28 18:04 | 51.16677 | 5.46844 | 4470 ft | 112 kts | 211° |
| 2026-04-28 18:04 | 51.15992 | 5.46247 | 4241 ft | 112 kts | 211° |
| 2026-04-28 18:04 | 51.15553 | 5.45305 | 4003 ft | 108 kts | 258° |
| 2026-04-28 18:04 | 51.15307 | 5.44169 | 3814 ft | 109 kts | 251° |
| 2026-04-28 18:05 | 51.15052 | 5.43037 | 3597 ft | 108 kts | 253° |
| 2026-04-28 18:05 | 51.14872 | 5.42266 | 3353 ft | 116 kts | 252° |
| 2026-04-28 18:05 | 51.14475 | 5.40610 | 2868 ft | 122 kts | 252° |
| 2026-04-28 18:05 | 51.14166 | 5.39335 | 2496 ft | 124 kts | 251° |
| 2026-04-28 18:06 | 51.13847 | 5.38057 | 2127 ft | 125 kts | 250° |
| 2026-04-28 18:06 | 51.13536 | 5.36764 | 1844 ft | 123 kts | 252° |
| 2026-04-28 18:06 | 51.13164 | 5.35535 | 1505 ft | 127 kts | 243° |
| 2026-04-28 18:06 | 51.12729 | 5.34336 | 1187 ft | 124 kts | 242° |
| 2026-04-28 18:07 | 51.12320 | 5.33144 | 832 ft | 115 kts | 248° |
| 2026-04-28 18:07 | 51.12124 | 5.32017 | 584 ft | 100 kts | 262° |
| 2026-04-28 18:07 | 51.12029 | 5.30971 | 336 ft | 94 kts | 263° |
| 2026-04-28 18:07 | 51.11937 | 5.30012 | 207 ft | 72 kts | 261° |
| 2026-04-28 18:08 | 51.11893 | 5.29546 | 205 ft | 15 kts | 245° |
| 2026-04-28 18:08 | 51.11911 | 5.29588 | 213 ft | 15 kts | 7° |
| 2026-04-28 18:08 | 51.11981 | 5.29592 | 207 ft | 0 kts | 326° |
| 2026-04-28 18:08 | 51.11976 | 5.29595 | 207 ft | 0 kts | 360° |